createdAt,value
2024-02-29T00:02:01.632Z,6.24
2024-02-29T00:05:05.062Z,6.30
2024-02-29T00:08:07.791Z,6.25
2024-02-29T00:11:11.472Z,6.17
2024-02-29T00:14:14.145Z,6.16
2024-02-29T00:17:16.882Z,6.22
2024-02-29T00:20:19.550Z,6.19
2024-02-29T00:23:22.327Z,6.17
2024-02-29T00:26:24.875Z,6.17
2024-02-29T00:29:29.594Z,6.26
2024-02-29T00:32:32.163Z,6.21
2024-02-29T00:35:34.714Z,6.09
2024-02-29T00:38:38.420Z,6.17
2024-02-29T00:41:40.945Z,6.00
2024-02-29T00:44:43.531Z,5.90
2024-02-29T00:47:46.129Z,5.90
2024-02-29T00:50:49.040Z,5.90
2024-02-29T00:53:51.745Z,5.59
2024-02-29T00:56:54.402Z,5.80
2024-02-29T00:59:57.030Z,5.67
2024-02-29T01:02:59.724Z,5.64
2024-02-29T01:06:02.652Z,5.66
2024-02-29T01:09:05.647Z,5.49
2024-02-29T01:12:10.046Z,5.56
2024-02-29T01:15:14.058Z,5.54
2024-02-29T01:18:16.928Z,5.49
2024-02-29T01:21:19.612Z,5.50
2024-02-29T01:24:22.247Z,5.50
2024-02-29T01:27:24.807Z,5.47
2024-02-29T01:30:28.374Z,5.47
2024-02-29T01:33:31.078Z,5.43
2024-02-29T01:36:33.849Z,5.35
2024-02-29T01:39:36.854Z,5.43
2024-02-29T01:42:43.102Z,5.48
2024-02-29T01:45:46.869Z,5.42
2024-02-29T01:48:49.915Z,5.41
2024-02-29T01:51:53.094Z,5.27
2024-02-29T01:54:55.895Z,5.33
2024-02-29T01:57:58.614Z,5.33
2024-02-29T02:01:01.968Z,5.33
2024-02-29T02:04:05.034Z,5.35
2024-02-29T02:07:09.803Z,5.40
2024-02-29T02:10:13.333Z,5.35
2024-02-29T02:13:16.234Z,5.33
2024-02-29T02:16:19.083Z,5.39
2024-02-29T02:19:21.666Z,5.33
2024-02-29T02:22:24.288Z,5.33
2024-02-29T02:25:26.852Z,5.23
2024-02-29T02:28:30.750Z,5.25
2024-02-29T02:31:33.612Z,5.21
2024-02-29T02:34:36.281Z,5.11
2024-02-29T02:37:39.779Z,5.14
2024-02-29T02:40:42.385Z,5.09
2024-02-29T02:43:52.104Z,5.07
2024-02-29T02:46:55.759Z,5.00
2024-02-29T02:49:58.511Z,4.94
2024-02-29T02:53:01.162Z,4.88
2024-02-29T02:56:05.125Z,4.79
2024-02-29T02:59:07.639Z,4.65
2024-02-29T03:02:10.495Z,4.67
2024-02-29T03:05:14.040Z,4.70
2024-02-29T03:08:16.557Z,4.73
2024-02-29T03:11:19.465Z,4.76
2024-02-29T03:14:22.053Z,4.72
2024-02-29T03:17:24.670Z,4.72
2024-02-29T03:20:27.966Z,4.76
2024-02-29T03:23:30.676Z,4.78
2024-02-29T03:26:33.238Z,4.71
2024-02-29T03:29:35.777Z,4.76
2024-02-29T03:32:38.385Z,4.67
2024-02-29T03:35:41.013Z,4.70
2024-02-29T03:38:43.595Z,4.76
2024-02-29T03:41:46.097Z,4.81
2024-02-29T03:44:48.655Z,4.83
2024-02-29T03:47:51.351Z,4.84
2024-02-29T03:50:54.407Z,4.90
2024-02-29T03:53:56.998Z,4.72
2024-02-29T03:57:00.047Z,4.79
2024-02-29T04:00:12.128Z,4.38
2024-02-29T04:03:15.596Z,4.64
2024-02-29T04:06:18.318Z,4.62
2024-02-29T04:09:21.029Z,4.64
2024-02-29T04:12:24.015Z,4.68
2024-02-29T04:15:26.574Z,4.73
2024-02-29T04:18:29.393Z,4.50
2024-02-29T04:21:33.619Z,4.50
2024-02-29T04:24:36.410Z,4.53
2024-02-29T04:27:39.254Z,4.53
2024-02-29T04:30:45.025Z,4.50
2024-02-29T04:33:51.638Z,4.41
2024-02-29T04:36:54.681Z,4.43
2024-02-29T04:39:57.414Z,4.52
2024-02-29T04:43:00.028Z,4.46
2024-02-29T04:46:03.899Z,4.38
2024-02-29T04:49:06.609Z,4.38
2024-02-29T04:52:09.439Z,4.40
2024-02-29T04:55:12.228Z,4.41
2024-02-29T04:58:14.856Z,4.41
2024-02-29T05:01:18.317Z,4.42
2024-02-29T05:04:20.980Z,4.27
2024-02-29T05:07:23.733Z,4.28
2024-02-29T05:10:26.482Z,4.34
2024-02-29T05:13:29.136Z,4.35
2024-02-29T05:16:31.991Z,4.30
2024-02-29T05:19:36.289Z,4.26
2024-02-29T05:22:39.989Z,4.30
2024-02-29T05:25:42.574Z,4.35
2024-02-29T05:28:45.080Z,4.15
2024-02-29T05:31:54.251Z,4.42
2024-02-29T05:34:57.005Z,4.37
2024-02-29T05:37:59.922Z,4.32
2024-02-29T05:41:04.584Z,4.42
2024-02-29T05:44:08.154Z,4.47
2024-02-29T05:47:10.796Z,4.27
2024-02-29T05:50:13.423Z,4.51
2024-02-29T05:53:16.093Z,4.38
2024-02-29T05:56:18.799Z,4.34
2024-02-29T05:59:21.817Z,4.45
2024-02-29T06:02:24.440Z,4.54
2024-02-29T06:05:29.267Z,4.45
2024-02-29T06:08:32.224Z,4.54
2024-02-29T06:11:34.958Z,4.68
2024-02-29T06:14:37.523Z,4.76
2024-02-29T06:17:42.883Z,4.89
2024-02-29T06:20:45.856Z,4.94
2024-02-29T06:23:49.183Z,4.91
2024-02-29T06:26:54.800Z,5.09
2024-02-29T06:29:58.820Z,5.15
2024-02-29T06:33:02.440Z,5.29
2024-02-29T06:36:08.172Z,5.52
2024-02-29T06:39:12.559Z,5.57
2024-02-29T06:42:16.187Z,5.77
2024-02-29T06:45:19.196Z,5.88
2024-02-29T06:48:28.254Z,6.00
2024-02-29T06:51:31.193Z,6.06
2024-02-29T06:54:33.808Z,6.03
2024-02-29T06:57:37.467Z,6.29
2024-02-29T07:00:40.771Z,6.46
2024-02-29T07:03:43.514Z,6.62
2024-02-29T07:06:46.476Z,6.64
2024-02-29T07:09:51.156Z,6.77
2024-02-29T07:12:53.968Z,6.79
2024-02-29T07:16:00.488Z,7.16
2024-02-29T07:19:03.765Z,7.18
2024-02-29T07:22:07.040Z,7.55
2024-02-29T07:25:10.196Z,7.79
2024-02-29T07:28:15.984Z,7.92
2024-02-29T07:31:22.330Z,8.23
2024-02-29T07:34:25.721Z,8.45
2024-02-29T07:37:29.721Z,8.65
2024-02-29T07:40:32.737Z,8.90
2024-02-29T07:43:35.317Z,8.99
2024-02-29T07:46:38.192Z,9.23
2024-02-29T07:49:40.964Z,9.45
2024-02-29T07:52:43.546Z,9.65
2024-02-29T07:55:46.655Z,9.81
2024-02-29T07:58:49.377Z,10.00
2024-02-29T08:01:52.064Z,10.16
2024-02-29T08:04:55.054Z,10.31
2024-02-29T08:07:57.726Z,10.55
2024-02-29T08:11:00.867Z,10.70
2024-02-29T08:14:03.584Z,10.92
2024-02-29T08:17:07.297Z,11.03
2024-02-29T08:20:11.733Z,11.22
2024-02-29T08:23:16.883Z,11.38
2024-02-29T08:26:19.972Z,11.49
2024-02-29T08:29:22.641Z,11.65
2024-02-29T08:32:25.347Z,11.74
2024-02-29T08:35:28.592Z,11.92
2024-02-29T08:38:32.103Z,11.96
2024-02-29T08:41:34.836Z,12.05
2024-02-29T08:44:37.753Z,12.17
2024-02-29T08:47:41.653Z,12.18
2024-02-29T08:50:46.651Z,12.37
2024-02-29T08:53:49.340Z,12.45
2024-02-29T08:56:53.721Z,12.39
2024-02-29T08:59:56.386Z,12.38
2024-02-29T09:02:59.096Z,12.39
2024-02-29T09:06:01.941Z,12.40
2024-02-29T09:09:04.966Z,12.40
2024-02-29T09:12:09.703Z,12.46
2024-02-29T09:15:15.043Z,12.44
2024-02-29T09:18:17.652Z,12.43
2024-02-29T09:21:20.404Z,12.52
2024-02-29T09:24:23.204Z,12.61
2024-02-29T09:27:26.839Z,12.72
2024-02-29T09:30:29.525Z,12.92
2024-02-29T09:33:32.327Z,13.09
2024-02-29T09:36:36.045Z,13.36
2024-02-29T09:39:39.017Z,13.67
2024-02-29T09:42:41.756Z,13.85
2024-02-29T09:45:44.860Z,13.83
2024-02-29T09:48:49.367Z,14.07
2024-02-29T09:51:55.198Z,14.34
2024-02-29T09:55:05.307Z,14.38
2024-02-29T09:58:09.764Z,14.40
2024-02-29T10:01:13.231Z,14.69
2024-02-29T10:04:16.187Z,14.81
2024-02-29T10:07:18.979Z,14.94
2024-02-29T10:10:22.880Z,15.19
2024-02-29T10:13:25.791Z,15.31
2024-02-29T10:16:29.191Z,15.25
2024-02-29T10:19:34.697Z,15.38
2024-02-29T10:22:40.200Z,15.57
2024-02-29T10:25:43.314Z,15.66
2024-02-29T10:28:46.429Z,15.97
2024-02-29T10:31:49.384Z,16.04
2024-02-29T10:34:52.127Z,15.99
2024-02-29T10:37:56.711Z,16.33
2024-02-29T10:41:04.418Z,16.51
2024-02-29T10:44:10.601Z,16.74
2024-02-29T10:47:16.927Z,16.64
2024-02-29T10:50:27.085Z,16.75
2024-02-29T10:53:40.067Z,16.89
2024-02-29T10:56:45.974Z,16.77
2024-02-29T10:59:59.538Z,16.75
2024-02-29T11:03:02.526Z,16.77
2024-02-29T11:06:11.298Z,17.11
2024-02-29T11:09:19.466Z,17.39
2024-02-29T11:12:30.474Z,16.78
2024-02-29T11:15:34.641Z,17.35
2024-02-29T11:18:39.407Z,17.35
2024-02-29T11:21:42.443Z,17.41
2024-02-29T11:24:47.662Z,17.52
2024-02-29T11:27:53.894Z,17.69
2024-02-29T11:31:08.342Z,17.82
2024-02-29T11:34:12.869Z,17.19
2024-02-29T11:37:16.095Z,17.22
2024-02-29T11:40:21.489Z,17.08
2024-02-29T11:43:26.307Z,17.01
2024-02-29T11:46:30.518Z,17.02
2024-02-29T11:49:35.186Z,16.94
2024-02-29T11:52:38.555Z,17.15
2024-02-29T11:55:41.379Z,17.31
2024-02-29T11:58:45.217Z,17.44
2024-02-29T12:01:48.194Z,17.56
2024-02-29T12:04:58.368Z,17.55
2024-02-29T12:08:01.438Z,17.28
2024-02-29T12:11:06.529Z,17.57
2024-02-29T12:14:09.579Z,17.67
2024-02-29T12:17:12.474Z,17.84
2024-02-29T12:20:18.441Z,17.90
2024-02-29T12:23:21.590Z,17.70
2024-02-29T12:26:25.129Z,17.83
2024-02-29T12:29:31.173Z,17.86
2024-02-29T12:32:34.497Z,17.89
2024-02-29T12:35:37.516Z,18.07
2024-02-29T12:38:44.248Z,17.92
2024-02-29T12:41:47.041Z,17.91
2024-02-29T12:44:51.110Z,17.95
2024-02-29T12:47:58.082Z,17.89
2024-02-29T12:51:01.358Z,17.64
2024-02-29T12:54:04.029Z,17.59
2024-02-29T12:57:11.203Z,17.79
2024-02-29T13:00:26.306Z,17.35
2024-02-29T13:03:29.647Z,17.32
2024-02-29T13:06:32.690Z,17.49
2024-02-29T13:09:38.308Z,17.67
2024-02-29T13:12:45.348Z,17.71
2024-02-29T13:15:54.105Z,17.58
2024-02-29T13:18:58.353Z,17.67
2024-02-29T13:22:01.161Z,17.59
2024-02-29T13:25:04.854Z,17.59
2024-02-29T13:28:08.109Z,17.43
2024-02-29T13:31:11.028Z,17.53
2024-02-29T13:34:13.920Z,17.66
2024-02-29T13:37:19.528Z,17.46
2024-02-29T13:40:24.324Z,17.40
2024-02-29T13:43:27.328Z,17.44
2024-02-29T13:46:30.970Z,17.48
2024-02-29T13:49:34.082Z,17.54
2024-02-29T13:52:39.719Z,17.27
2024-02-29T13:55:44.404Z,16.79
2024-02-29T13:58:49.844Z,16.71
2024-02-29T14:01:52.829Z,16.58
2024-02-29T14:04:59.270Z,16.58
2024-02-29T14:08:02.796Z,16.52
2024-02-29T14:11:14.954Z,16.13
2024-02-29T14:14:21.224Z,16.46
2024-02-29T14:17:27.909Z,16.45
2024-02-29T14:20:37.997Z,16.21
2024-02-29T14:23:46.600Z,16.24
2024-02-29T14:26:53.439Z,16.29
2024-02-29T14:30:11.840Z,16.37
2024-02-29T14:33:16.512Z,16.14
2024-02-29T14:36:21.810Z,16.23
2024-02-29T14:39:25.082Z,16.15
2024-02-29T14:42:28.746Z,15.93
2024-02-29T14:45:31.758Z,16.21
2024-02-29T14:48:34.637Z,16.00
2024-02-29T14:51:37.701Z,16.23
2024-02-29T14:54:46.100Z,15.96
2024-02-29T14:57:48.947Z,16.16
2024-02-29T15:00:51.989Z,16.23
2024-02-29T15:03:55.332Z,16.15
2024-02-29T15:06:59.283Z,16.02
2024-02-29T15:10:02.525Z,16.05
2024-02-29T15:13:06.449Z,16.13
2024-02-29T15:16:09.495Z,15.89
2024-02-29T15:19:12.541Z,15.97
2024-02-29T15:22:15.485Z,15.77
2024-02-29T15:25:20.573Z,15.60
2024-02-29T15:28:25.708Z,15.42
2024-02-29T15:31:28.739Z,15.32
2024-02-29T15:34:31.510Z,15.15
2024-02-29T15:37:34.188Z,15.01
2024-02-29T15:40:37.235Z,14.86
2024-02-29T15:43:41.075Z,14.75
2024-02-29T15:46:45.787Z,14.54
2024-02-29T15:49:49.978Z,14.47
2024-02-29T15:52:52.619Z,14.33
2024-02-29T15:55:55.528Z,14.02
2024-02-29T15:58:58.260Z,14.03
2024-02-29T16:02:03.603Z,13.94
2024-02-29T16:05:06.536Z,13.71
2024-02-29T16:08:09.434Z,13.77
2024-02-29T16:11:12.604Z,13.69
2024-02-29T16:14:15.251Z,13.57
2024-02-29T16:17:17.875Z,13.54
2024-02-29T16:20:25.969Z,13.09
2024-02-29T16:23:28.925Z,13.18
2024-02-29T16:26:32.001Z,13.23
2024-02-29T16:29:35.602Z,13.08
2024-02-29T16:32:38.343Z,13.02
2024-02-29T16:35:41.148Z,12.82
2024-02-29T16:38:43.869Z,12.77
2024-02-29T16:41:46.964Z,12.66
2024-02-29T16:44:50.990Z,12.53
2024-02-29T16:47:53.696Z,12.51
2024-02-29T16:51:00.077Z,12.43
2024-02-29T16:54:03.031Z,12.37
2024-02-29T16:57:06.515Z,12.17
2024-02-29T17:00:10.345Z,11.88
2024-02-29T17:03:13.210Z,11.87
2024-02-29T17:06:16.728Z,11.79
2024-02-29T17:09:19.883Z,11.72
2024-02-29T17:12:22.845Z,11.65
2024-02-29T17:15:26.764Z,11.56
2024-02-29T17:18:30.882Z,11.49
2024-02-29T17:21:33.432Z,11.43
2024-02-29T17:24:36.250Z,11.28
2024-02-29T17:27:38.982Z,11.13
2024-02-29T17:30:41.586Z,11.06
2024-02-29T17:33:44.355Z,11.01
2024-02-29T17:36:47.122Z,10.85
2024-02-29T17:39:50.932Z,10.86
2024-02-29T17:42:54.003Z,10.77
2024-02-29T17:45:56.840Z,10.70
2024-02-29T17:48:59.811Z,10.57
2024-02-29T17:52:04.748Z,10.40
2024-02-29T17:55:07.784Z,10.33
2024-02-29T17:58:10.594Z,10.31
2024-02-29T18:01:13.701Z,10.34
2024-02-29T18:04:16.639Z,10.27
2024-02-29T18:07:19.341Z,10.19
2024-02-29T18:10:22.303Z,10.09
2024-02-29T18:13:25.354Z,10.13
2024-02-29T18:16:29.455Z,10.05
2024-02-29T18:19:33.170Z,9.92
2024-02-29T18:22:36.335Z,9.87
2024-02-29T18:25:39.496Z,9.76
2024-02-29T18:28:42.434Z,9.60
2024-02-29T18:31:46.319Z,9.53
2024-02-29T18:34:48.898Z,9.44
2024-02-29T18:37:52.078Z,9.37
2024-02-29T18:40:55.059Z,9.44
2024-02-29T18:43:59.773Z,9.36
2024-02-29T18:47:02.913Z,9.38
2024-02-29T18:50:06.423Z,9.38
2024-02-29T18:53:11.097Z,9.40
2024-02-29T18:56:14.210Z,9.52
2024-02-29T18:59:17.689Z,9.50
2024-02-29T19:02:20.534Z,9.28
2024-02-29T19:05:23.606Z,9.43
2024-02-29T19:08:26.707Z,9.39
2024-02-29T19:11:29.721Z,9.36
2024-02-29T19:14:32.457Z,9.37
2024-02-29T19:17:35.336Z,9.29
2024-02-29T19:20:39.646Z,9.26
2024-02-29T19:23:42.193Z,9.12
2024-02-29T19:26:46.099Z,9.12
2024-02-29T19:29:51.587Z,9.02
2024-02-29T19:32:54.540Z,9.14
2024-02-29T19:35:57.327Z,9.18
2024-02-29T19:39:00.242Z,9.32
2024-02-29T19:42:04.354Z,9.38
2024-02-29T19:45:10.583Z,9.30
2024-02-29T19:48:13.166Z,9.43
2024-02-29T19:51:16.224Z,9.37
2024-02-29T19:54:19.356Z,9.42
2024-02-29T19:57:22.168Z,9.30
2024-02-29T20:00:29.004Z,9.40
2024-02-29T20:03:31.847Z,9.43
2024-02-29T20:06:34.864Z,9.47
2024-02-29T20:09:38.150Z,9.48
2024-02-29T20:12:41.519Z,9.52
2024-02-29T20:15:44.344Z,9.55
2024-02-29T20:18:47.305Z,9.52
2024-02-29T20:21:50.292Z,9.56
2024-02-29T20:24:54.765Z,9.52
2024-02-29T20:27:57.889Z,9.47
2024-02-29T20:31:00.868Z,9.60
2024-02-29T20:34:03.907Z,9.66
2024-02-29T20:37:06.697Z,9.77
2024-02-29T20:40:10.302Z,9.60
2024-02-29T20:43:13.631Z,9.78
2024-02-29T20:46:17.872Z,9.77
2024-02-29T20:49:20.926Z,9.71
2024-02-29T20:52:27.049Z,9.72
2024-02-29T20:55:31.405Z,9.63
2024-02-29T20:58:36.768Z,9.58
2024-02-29T21:01:39.908Z,9.64
2024-02-29T21:04:44.237Z,9.55
2024-02-29T21:07:47.187Z,9.39
2024-02-29T21:10:50.020Z,9.36
2024-02-29T21:13:54.692Z,9.21
2024-02-29T21:16:57.358Z,9.17
2024-02-29T21:20:00.247Z,9.05
2024-02-29T21:23:04.013Z,8.86
2024-02-29T21:26:06.706Z,8.73
2024-02-29T21:29:09.893Z,8.68
2024-02-29T21:32:13.549Z,8.72
2024-02-29T21:35:20.448Z,8.40
2024-02-29T21:38:23.090Z,8.37
2024-02-29T21:41:26.099Z,8.26
2024-02-29T21:44:28.826Z,8.10
2024-02-29T21:47:31.421Z,8.16
2024-02-29T21:50:35.180Z,7.99
2024-02-29T21:53:37.844Z,7.92
2024-02-29T21:56:40.615Z,8.06
2024-02-29T21:59:45.018Z,7.92
2024-02-29T22:02:47.909Z,8.03
2024-02-29T22:05:50.589Z,8.10
2024-02-29T22:08:53.257Z,8.03
2024-02-29T22:11:57.199Z,7.87
2024-02-29T22:14:59.914Z,7.85
2024-02-29T22:18:02.614Z,8.00
2024-02-29T22:21:05.584Z,8.12
2024-02-29T22:24:11.865Z,8.18
2024-02-29T22:27:15.436Z,8.15
2024-02-29T22:30:18.984Z,8.11
2024-02-29T22:33:21.656Z,8.23
2024-02-29T22:36:24.525Z,8.21
2024-02-29T22:39:27.346Z,8.13
2024-02-29T22:42:29.943Z,8.04
2024-02-29T22:45:32.577Z,8.06
2024-02-29T22:48:35.687Z,8.10
2024-02-29T22:51:38.217Z,7.99
2024-02-29T22:54:41.092Z,7.86
2024-02-29T22:57:44.033Z,7.79
2024-02-29T23:00:53.056Z,7.58
2024-02-29T23:03:58.509Z,7.53
2024-02-29T23:07:01.418Z,7.51
2024-02-29T23:10:04.535Z,7.43
2024-02-29T23:13:07.920Z,7.28
2024-02-29T23:16:10.676Z,7.19
2024-02-29T23:19:13.254Z,7.11
2024-02-29T23:22:16.282Z,7.19
2024-02-29T23:25:21.392Z,7.14
2024-02-29T23:28:25.677Z,6.90
2024-02-29T23:31:28.422Z,7.00
2024-02-29T23:34:31.032Z,6.99
2024-02-29T23:37:33.717Z,6.96
2024-02-29T23:40:36.455Z,7.17
2024-02-29T23:43:39.640Z,7.04
2024-02-29T23:46:42.779Z,7.22
2024-02-29T23:49:45.312Z,7.43
2024-02-29T23:52:47.851Z,7.68
2024-02-29T23:55:50.399Z,8.13
2024-02-29T23:58:52.982Z,8.30
